sensor_id;sensor_type;location;lat;lon;timestamp;temperature;humidity
72380;SHT30;60354;47.798;12.472;2024-03-02T00:01:07;7.01;94.55
72380;SHT30;60354;47.798;12.472;2024-03-02T00:03:36;6.99;94.80
72380;SHT30;60354;47.798;12.472;2024-03-02T00:06:03;7.02;94.79
72380;SHT30;60354;47.798;12.472;2024-03-02T00:08:29;7.11;94.52
72380;SHT30;60354;47.798;12.472;2024-03-02T00:10:59;7.13;94.35
72380;SHT30;60354;47.798;12.472;2024-03-02T00:13:25;7.18;94.29
72380;SHT30;60354;47.798;12.472;2024-03-02T00:15:53;7.13;93.87
72380;SHT30;60354;47.798;12.472;2024-03-02T00:18:40;7.09;94.15
72380;SHT30;60354;47.798;12.472;2024-03-02T00:21:06;7.02;93.93
72380;SHT30;60354;47.798;12.472;2024-03-02T00:23:35;7.06;94.21
72380;SHT30;60354;47.798;12.472;2024-03-02T00:26:01;7.08;94.23
72380;SHT30;60354;47.798;12.472;2024-03-02T00:28:34;7.03;94.45
72380;SHT30;60354;47.798;12.472;2024-03-02T00:31:03;7.03;94.39
72380;SHT30;60354;47.798;12.472;2024-03-02T00:36:03;7.08;94.34
72380;SHT30;60354;47.798;12.472;2024-03-02T00:38:30;7.06;94.37
72380;SHT30;60354;47.798;12.472;2024-03-02T00:40:58;7.05;94.59
72380;SHT30;60354;47.798;12.472;2024-03-02T00:43:41;7.09;94.29
72380;SHT30;60354;47.798;12.472;2024-03-02T00:46:06;7.09;94.15
72380;SHT30;60354;47.798;12.472;2024-03-02T00:48:32;7.11;93.95
72380;SHT30;60354;47.798;12.472;2024-03-02T00:51:01;7.06;93.74
72380;SHT30;60354;47.798;12.472;2024-03-02T00:53:29;7.09;93.97
72380;SHT30;60354;47.798;12.472;2024-03-02T00:55:55;7.05;94.21
72380;SHT30;60354;47.798;12.472;2024-03-02T00:58:21;7.02;94.19
72380;SHT30;60354;47.798;12.472;2024-03-02T01:00:46;7.01;94.06
72380;SHT30;60354;47.798;12.472;2024-03-02T01:03:12;7.01;94.23
72380;SHT30;60354;47.798;12.472;2024-03-02T01:05:44;6.92;94.52
72380;SHT30;60354;47.798;12.472;2024-03-02T01:08:10;6.93;94.50
72380;SHT30;60354;47.798;12.472;2024-03-02T01:10:35;6.99;94.26
72380;SHT30;60354;47.798;12.472;2024-03-02T01:13:01;6.99;94.15
72380;SHT30;60354;47.798;12.472;2024-03-02T01:15:27;6.98;93.99
72380;SHT30;60354;47.798;12.472;2024-03-02T01:17:52;6.98;94.08
72380;SHT30;60354;47.798;12.472;2024-03-02T01:20:18;6.95;94.38
72380;SHT30;60354;47.798;12.472;2024-03-02T01:22:43;6.99;94.27
72380;SHT30;60354;47.798;12.472;2024-03-02T01:25:09;6.91;94.18
72380;SHT30;60354;47.798;12.472;2024-03-02T01:27:34;6.98;94.14
72380;SHT30;60354;47.798;12.472;2024-03-02T01:30:00;6.93;93.82
72380;SHT30;60354;47.798;12.472;2024-03-02T01:32:25;6.89;93.74
72380;SHT30;60354;47.798;12.472;2024-03-02T01:34:51;6.85;94.21
72380;SHT30;60354;47.798;12.472;2024-03-02T01:37:16;6.85;93.91
72380;SHT30;60354;47.798;12.472;2024-03-02T01:39:42;6.85;94.24
72380;SHT30;60354;47.798;12.472;2024-03-02T01:42:07;6.85;94.01
72380;SHT30;60354;47.798;12.472;2024-03-02T01:44:33;6.82;93.69
72380;SHT30;60354;47.798;12.472;2024-03-02T01:46:58;6.80;93.84
72380;SHT30;60354;47.798;12.472;2024-03-02T01:49:24;6.77;94.24
72380;SHT30;60354;47.798;12.472;2024-03-02T01:51:49;6.74;94.03
72380;SHT30;60354;47.798;12.472;2024-03-02T01:54:15;6.78;93.91
72380;SHT30;60354;47.798;12.472;2024-03-02T01:56:40;6.80;93.93
72380;SHT30;60354;47.798;12.472;2024-03-02T01:59:06;6.72;93.71
72380;SHT30;60354;47.798;12.472;2024-03-02T02:01:31;6.61;94.14
72380;SHT30;60354;47.798;12.472;2024-03-02T02:03:57;6.63;94.22
72380;SHT30;60354;47.798;12.472;2024-03-02T02:06:23;6.64;94.12
72380;SHT30;60354;47.798;12.472;2024-03-02T02:08:48;6.64;93.69
72380;SHT30;60354;47.798;12.472;2024-03-02T02:11:15;6.60;93.93
72380;SHT30;60354;47.798;12.472;2024-03-02T02:13:41;6.61;93.78
72380;SHT30;60354;47.798;12.472;2024-03-02T02:16:09;6.54;93.53
72380;SHT30;60354;47.798;12.472;2024-03-02T02:18:35;6.55;93.79
72380;SHT30;60354;47.798;12.472;2024-03-02T02:21:03;6.44;93.71
72380;SHT30;60354;47.798;12.472;2024-03-02T02:23:29;6.40;93.41
72380;SHT30;60354;47.798;12.472;2024-03-02T02:25:54;6.33;93.26
72380;SHT30;60354;47.798;12.472;2024-03-02T02:28:20;6.27;92.86
72380;SHT30;60354;47.798;12.472;2024-03-02T02:30:45;6.22;93.10
72380;SHT30;60354;47.798;12.472;2024-03-02T02:33:11;6.20;93.13
72380;SHT30;60354;47.798;12.472;2024-03-02T02:35:36;6.13;92.21
72380;SHT30;60354;47.798;12.472;2024-03-02T02:38:03;6.10;92.72
72380;SHT30;60354;47.798;12.472;2024-03-02T02:40:28;6.05;92.61
72380;SHT30;60354;47.798;12.472;2024-03-02T02:42:57;6.02;92.52
72380;SHT30;60354;47.798;12.472;2024-03-02T02:45:24;5.93;91.98
72380;SHT30;60354;47.798;12.472;2024-03-02T02:47:49;5.86;92.49
72380;SHT30;60354;47.798;12.472;2024-03-02T02:50:15;5.66;92.58
72380;SHT30;60354;47.798;12.472;2024-03-02T02:52:41;5.72;92.92
72380;SHT30;60354;47.798;12.472;2024-03-02T02:55:11;5.62;93.04
72380;SHT30;60354;47.798;12.472;2024-03-02T02:57:39;5.63;93.16
72380;SHT30;60354;47.798;12.472;2024-03-02T03:00:07;5.62;93.54
72380;SHT30;60354;47.798;12.472;2024-03-02T03:02:39;5.55;93.53
72380;SHT30;60354;47.798;12.472;2024-03-02T03:05:08;5.42;93.96
72380;SHT30;60354;47.798;12.472;2024-03-02T03:07:34;5.48;94.21
72380;SHT30;60354;47.798;12.472;2024-03-02T03:10:00;5.38;94.03
72380;SHT30;60354;47.798;12.472;2024-03-02T03:12:26;5.47;94.19
72380;SHT30;60354;47.798;12.472;2024-03-02T03:14:51;5.45;93.79
72380;SHT30;60354;47.798;12.472;2024-03-02T03:17:17;5.27;94.29
72380;SHT30;60354;47.798;12.472;2024-03-02T03:19:43;5.17;95.06
72380;SHT30;60354;47.798;12.472;2024-03-02T03:22:09;5.09;95.40
72380;SHT30;60354;47.798;12.472;2024-03-02T03:24:34;5.21;94.74
72380;SHT30;60354;47.798;12.472;2024-03-02T03:27:00;5.30;94.41
72380;SHT30;60354;47.798;12.472;2024-03-02T03:29:26;5.35;94.00
72380;SHT30;60354;47.798;12.472;2024-03-02T03:31:51;5.47;93.66
72380;SHT30;60354;47.798;12.472;2024-03-02T03:34:17;5.55;94.07
72380;SHT30;60354;47.798;12.472;2024-03-02T03:36:42;5.58;93.09
72380;SHT30;60354;47.798;12.472;2024-03-02T03:39:08;5.63;93.27
72380;SHT30;60354;47.798;12.472;2024-03-02T03:41:34;5.62;92.98
72380;SHT30;60354;47.798;12.472;2024-03-02T03:43:59;5.63;92.85
72380;SHT30;60354;47.798;12.472;2024-03-02T03:46:25;5.62;93.11
72380;SHT30;60354;47.798;12.472;2024-03-02T03:48:50;5.62;93.29
72380;SHT30;60354;47.798;12.472;2024-03-02T03:51:16;5.58;93.16
72380;SHT30;60354;47.798;12.472;2024-03-02T03:53:41;5.62;93.13
72380;SHT30;60354;47.798;12.472;2024-03-02T03:56:07;5.55;93.08
72380;SHT30;60354;47.798;12.472;2024-03-02T03:58:32;5.54;93.09
72380;SHT30;60354;47.798;12.472;2024-03-02T04:00:58;5.56;93.29
72380;SHT30;60354;47.798;12.472;2024-03-02T04:03:23;5.58;93.05
72380;SHT30;60354;47.798;12.472;2024-03-02T04:05:49;5.65;93.18
72380;SHT30;60354;47.798;12.472;2024-03-02T04:08:14;5.63;93.21
72380;SHT30;60354;47.798;12.472;2024-03-02T04:10:40;5.47;93.89
72380;SHT30;60354;47.798;12.472;2024-03-02T04:13:08;5.41;93.51
72380;SHT30;60354;47.798;12.472;2024-03-02T04:15:33;5.38;94.21
72380;SHT30;60354;47.798;12.472;2024-03-02T04:17:59;5.40;94.12
72380;SHT30;60354;47.798;12.472;2024-03-02T04:20:24;5.47;94.20
72380;SHT30;60354;47.798;12.472;2024-03-02T04:22:50;5.50;94.07
72380;SHT30;60354;47.798;12.472;2024-03-02T04:25:16;5.55;93.84
72380;SHT30;60354;47.798;12.472;2024-03-02T04:27:41;5.59;93.92
72380;SHT30;60354;47.798;12.472;2024-03-02T04:30:07;5.63;93.83
72380;SHT30;60354;47.798;12.472;2024-03-02T04:32:33;5.62;94.22
72380;SHT30;60354;47.798;12.472;2024-03-02T04:34:58;5.61;94.00
72380;SHT30;60354;47.798;12.472;2024-03-02T04:37:23;5.62;93.77
72380;SHT30;60354;47.798;12.472;2024-03-02T04:39:49;5.63;93.80
72380;SHT30;60354;47.798;12.472;2024-03-02T04:42:14;5.69;93.60
72380;SHT30;60354;47.798;12.472;2024-03-02T04:44:40;5.54;92.85
72380;SHT30;60354;47.798;12.472;2024-03-02T04:47:05;5.59;93.09
72380;SHT30;60354;47.798;12.472;2024-03-02T04:49:31;5.55;92.87
72380;SHT30;60354;47.798;12.472;2024-03-02T04:51:56;5.62;93.04
72380;SHT30;60354;47.798;12.472;2024-03-02T04:54:22;5.65;92.75
72380;SHT30;60354;47.798;12.472;2024-03-02T04:56:48;5.55;92.61
72380;SHT30;60354;47.798;12.472;2024-03-02T04:59:17;5.32;93.83
72380;SHT30;60354;47.798;12.472;2024-03-02T05:01:45;5.32;93.94
72380;SHT30;60354;47.798;12.472;2024-03-02T05:04:12;5.38;93.93
72380;SHT30;60354;47.798;12.472;2024-03-02T05:06:41;5.35;93.88
72380;SHT30;60354;47.798;12.472;2024-03-02T05:09:07;5.35;93.94
72380;SHT30;60354;47.798;12.472;2024-03-02T05:11:32;5.35;93.81
72380;SHT30;60354;47.798;12.472;2024-03-02T05:14:04;5.24;92.88
72380;SHT30;60354;47.798;12.472;2024-03-02T05:16:36;5.19;93.76
72380;SHT30;60354;47.798;12.472;2024-03-02T05:19:03;5.24;93.66
72380;SHT30;60354;47.798;12.472;2024-03-02T05:21:31;5.20;92.95
72380;SHT30;60354;47.798;12.472;2024-03-02T05:23:57;5.21;93.08
72380;SHT30;60354;47.798;12.472;2024-03-02T05:26:22;5.27;93.00
72380;SHT30;60354;47.798;12.472;2024-03-02T05:28:48;5.31;91.95
72380;SHT30;60354;47.798;12.472;2024-03-02T05:31:16;5.27;92.11
72380;SHT30;60354;47.798;12.472;2024-03-02T05:33:43;5.31;91.97
72380;SHT30;60354;47.798;12.472;2024-03-02T05:36:08;5.16;91.47
72380;SHT30;60354;47.798;12.472;2024-03-02T05:38:34;5.13;91.48
72380;SHT30;60354;47.798;12.472;2024-03-02T05:41:00;5.11;91.62
72380;SHT30;60354;47.798;12.472;2024-03-02T05:43:26;5.04;91.41
72380;SHT30;60354;47.798;12.472;2024-03-02T05:45:51;5.01;91.05
72380;SHT30;60354;47.798;12.472;2024-03-02T05:48:17;4.97;91.61
72380;SHT30;60354;47.798;12.472;2024-03-02T05:50:42;4.99;91.67
72380;SHT30;60354;47.798;12.472;2024-03-02T05:53:08;4.90;91.18
72380;SHT30;60354;47.798;12.472;2024-03-02T05:55:33;4.90;91.67
72380;SHT30;60354;47.798;12.472;2024-03-02T05:57:58;4.89;90.91
72380;SHT30;60354;47.798;12.472;2024-03-02T06:00:42;4.84;91.36
72380;SHT30;60354;47.798;12.472;2024-03-02T06:03:08;4.77;91.40
72380;SHT30;60354;47.798;12.472;2024-03-02T06:05:34;4.80;91.43
72380;SHT30;60354;47.798;12.472;2024-03-02T06:08:00;4.75;91.12
72380;SHT30;60354;47.798;12.472;2024-03-02T06:10:25;4.73;90.47
72380;SHT30;60354;47.798;12.472;2024-03-02T06:12:51;4.55;92.19
72380;SHT30;60354;47.798;12.472;2024-03-02T06:15:16;4.49;91.31
72380;SHT30;60354;47.798;12.472;2024-03-02T06:17:42;4.48;91.30
72380;SHT30;60354;47.798;12.472;2024-03-02T06:20:08;4.37;91.49
72380;SHT30;60354;47.798;12.472;2024-03-02T06:22:34;4.44;90.89
72380;SHT30;60354;47.798;12.472;2024-03-02T06:25:00;4.41;91.14
72380;SHT30;60354;47.798;12.472;2024-03-02T06:27:25;4.46;91.12
72380;SHT30;60354;47.798;12.472;2024-03-02T06:29:51;4.37;91.45
72380;SHT30;60354;47.798;12.472;2024-03-02T06:32:16;4.32;91.99
72380;SHT30;60354;47.798;12.472;2024-03-02T06:34:42;4.08;92.50
72380;SHT30;60354;47.798;12.472;2024-03-02T06:37:08;4.17;92.74
72380;SHT30;60354;47.798;12.472;2024-03-02T06:39:33;4.17;92.16
72380;SHT30;60354;47.798;12.472;2024-03-02T06:42:00;4.25;92.10
72380;SHT30;60354;47.798;12.472;2024-03-02T06:44:25;4.27;91.76
72380;SHT30;60354;47.798;12.472;2024-03-02T06:46:51;4.22;91.40
72380;SHT30;60354;47.798;12.472;2024-03-02T06:49:16;4.22;91.70
72380;SHT30;60354;47.798;12.472;2024-03-02T06:51:44;4.25;91.23
72380;SHT30;60354;47.798;12.472;2024-03-02T06:54:09;4.35;91.10
72380;SHT30;60354;47.798;12.472;2024-03-02T06:56:35;4.53;91.12
72380;SHT30;60354;47.798;12.472;2024-03-02T06:59:00;4.56;90.82
72380;SHT30;60354;47.798;12.472;2024-03-02T07:01:26;4.66;91.82
72380;SHT30;60354;47.798;12.472;2024-03-02T07:03:51;4.75;91.75
72380;SHT30;60354;47.798;12.472;2024-03-02T07:06:17;4.75;91.79
72380;SHT30;60354;47.798;12.472;2024-03-02T07:08:43;4.81;92.01
72380;SHT30;60354;47.798;12.472;2024-03-02T07:11:08;5.03;91.27
72380;SHT30;60354;47.798;12.472;2024-03-02T07:13:34;5.19;90.74
72380;SHT30;60354;47.798;12.472;2024-03-02T07:16:00;5.34;90.85
72380;SHT30;60354;47.798;12.472;2024-03-02T07:18:31;5.52;90.67
72380;SHT30;60354;47.798;12.472;2024-03-02T07:20:57;5.81;90.77
72380;SHT30;60354;47.798;12.472;2024-03-02T07:23:27;5.95;90.94
72380;SHT30;60354;47.798;12.472;2024-03-02T07:25:53;6.12;90.70
72380;SHT30;60354;47.798;12.472;2024-03-02T07:28:24;6.03;91.17
72380;SHT30;60354;47.798;12.472;2024-03-02T07:31:04;6.13;90.99
72380;SHT30;60354;47.798;12.472;2024-03-02T07:33:30;6.23;91.20
72380;SHT30;60354;47.798;12.472;2024-03-02T07:35:56;6.36;90.99
72380;SHT30;60354;47.798;12.472;2024-03-02T07:38:23;6.54;91.37
72380;SHT30;60354;47.798;12.472;2024-03-02T07:40:49;6.54;91.79
72380;SHT30;60354;47.798;12.472;2024-03-02T07:43:18;6.70;91.56
72380;SHT30;60354;47.798;12.472;2024-03-02T07:45:45;6.88;90.93
72380;SHT30;60354;47.798;12.472;2024-03-02T07:48:10;6.98;90.69
72380;SHT30;60354;47.798;12.472;2024-03-02T07:50:36;7.08;90.93
72380;SHT30;60354;47.798;12.472;2024-03-02T07:53:03;7.20;90.03
72380;SHT30;60354;47.798;12.472;2024-03-02T07:55:30;7.34;90.11
72380;SHT30;60354;47.798;12.472;2024-03-02T07:57:56;7.52;89.94
72380;SHT30;60354;47.798;12.472;2024-03-02T08:00:23;7.64;89.26
72380;SHT30;60354;47.798;12.472;2024-03-02T08:02:50;7.81;88.49
72380;SHT30;60354;47.798;12.472;2024-03-02T08:05:16;7.94;88.20
72380;SHT30;60354;47.798;12.472;2024-03-02T08:07:43;7.90;87.59
72380;SHT30;60354;47.798;12.472;2024-03-02T08:10:09;8.08;87.11
72380;SHT30;60354;47.798;12.472;2024-03-02T08:12:35;8.26;86.96
72380;SHT30;60354;47.798;12.472;2024-03-02T08:15:00;8.45;87.01
72380;SHT30;60354;47.798;12.472;2024-03-02T08:17:26;8.60;86.88
72380;SHT30;60354;47.798;12.472;2024-03-02T08:19:52;8.74;85.11
72380;SHT30;60354;47.798;12.472;2024-03-02T08:22:18;8.86;84.79
72380;SHT30;60354;47.798;12.472;2024-03-02T08:24:44;9.10;84.89
72380;SHT30;60354;47.798;12.472;2024-03-02T08:27:09;9.17;85.35
72380;SHT30;60354;47.798;12.472;2024-03-02T08:29:35;9.39;84.66
72380;SHT30;60354;47.798;12.472;2024-03-02T08:32:01;9.55;84.20
72380;SHT30;60354;47.798;12.472;2024-03-02T08:34:26;9.69;82.88
72380;SHT30;60354;47.798;12.472;2024-03-02T08:36:52;9.83;81.86
72380;SHT30;60354;47.798;12.472;2024-03-02T08:39:18;10.03;81.86
72380;SHT30;60354;47.798;12.472;2024-03-02T08:41:45;10.12;80.91
72380;SHT30;60354;47.798;12.472;2024-03-02T08:44:11;10.18;78.87
72380;SHT30;60354;47.798;12.472;2024-03-02T08:46:37;10.51;78.48
72380;SHT30;60354;47.798;12.472;2024-03-02T08:49:03;10.60;77.41
72380;SHT30;60354;47.798;12.472;2024-03-02T08:51:28;10.58;77.86
72380;SHT30;60354;47.798;12.472;2024-03-02T08:53:54;10.76;76.66
72380;SHT30;60354;47.798;12.472;2024-03-02T08:56:19;10.75;75.72
72380;SHT30;60354;47.798;12.472;2024-03-02T08:58:46;10.81;76.04
72380;SHT30;60354;47.798;12.472;2024-03-02T09:01:12;10.98;77.25
72380;SHT30;60354;47.798;12.472;2024-03-02T09:03:38;11.01;75.85
72380;SHT30;60354;47.798;12.472;2024-03-02T09:06:03;10.89;75.36
72380;SHT30;60354;47.798;12.472;2024-03-02T09:08:29;10.98;76.39
72380;SHT30;60354;47.798;12.472;2024-03-02T09:10:55;11.25;76.89
72380;SHT30;60354;47.798;12.472;2024-03-02T09:13:21;11.39;75.88
72380;SHT30;60354;47.798;12.472;2024-03-02T09:15:47;11.36;76.24
72380;SHT30;60354;47.798;12.472;2024-03-02T09:18:13;11.43;75.02
72380;SHT30;60354;47.798;12.472;2024-03-02T09:20:39;11.60;75.65
72380;SHT30;60354;47.798;12.472;2024-03-02T09:23:04;11.56;75.08
72380;SHT30;60354;47.798;12.472;2024-03-02T09:25:30;11.73;75.52
72380;SHT30;60354;47.798;12.472;2024-03-02T09:27:55;11.71;76.30
72380;SHT30;60354;47.798;12.472;2024-03-02T09:30:21;11.73;76.18
72380;SHT30;60354;47.798;12.472;2024-03-02T09:32:46;11.62;75.92
72380;SHT30;60354;47.798;12.472;2024-03-02T09:35:12;11.52;75.79
72380;SHT30;60354;47.798;12.472;2024-03-02T09:37:37;11.60;77.30
72380;SHT30;60354;47.798;12.472;2024-03-02T09:40:04;11.70;76.14
72380;SHT30;60354;47.798;12.472;2024-03-02T09:42:29;11.98;75.46
72380;SHT30;60354;47.798;12.472;2024-03-02T09:44:55;11.83;75.80
72380;SHT30;60354;47.798;12.472;2024-03-02T09:47:20;11.99;76.13
72380;SHT30;60354;47.798;12.472;2024-03-02T09:49:47;12.02;77.13
72380;SHT30;60354;47.798;12.472;2024-03-02T09:52:13;12.14;75.24
72380;SHT30;60354;47.798;12.472;2024-03-02T09:54:40;12.31;75.44
72380;SHT30;60354;47.798;12.472;2024-03-02T09:57:05;12.49;75.49
72380;SHT30;60354;47.798;12.472;2024-03-02T09:59:31;12.59;75.23
72380;SHT30;60354;47.798;12.472;2024-03-02T10:02:00;12.44;76.03
72380;SHT30;60354;47.798;12.472;2024-03-02T10:04:27;12.49;74.30
72380;SHT30;60354;47.798;12.472;2024-03-02T10:07:14;12.75;73.88
72380;SHT30;60354;47.798;12.472;2024-03-02T10:09:41;12.93;73.84
72380;SHT30;60354;47.798;12.472;2024-03-02T10:12:11;13.14;73.38
72380;SHT30;60354;47.798;12.472;2024-03-02T10:14:38;13.08;72.32
72380;SHT30;60354;47.798;12.472;2024-03-02T10:17:07;13.26;74.07
72380;SHT30;60354;47.798;12.472;2024-03-02T10:19:34;13.37;73.70
72380;SHT30;60354;47.798;12.472;2024-03-02T10:22:01;13.16;72.51
72380;SHT30;60354;47.798;12.472;2024-03-02T10:24:35;13.10;72.39
72380;SHT30;60354;47.798;12.472;2024-03-02T10:27:02;13.08;73.34
72380;SHT30;60354;47.798;12.472;2024-03-02T10:29:31;13.17;73.08
72380;SHT30;60354;47.798;12.472;2024-03-02T10:31:57;12.95;74.03
72380;SHT30;60354;47.798;12.472;2024-03-02T10:34:24;13.07;74.41
72380;SHT30;60354;47.798;12.472;2024-03-02T10:36:53;12.92;75.04
72380;SHT30;60354;47.798;12.472;2024-03-02T10:39:23;12.99;74.16
72380;SHT30;60354;47.798;12.472;2024-03-02T10:41:49;12.86;74.56
72380;SHT30;60354;47.798;12.472;2024-03-02T10:44:17;12.95;74.02
72380;SHT30;60354;47.798;12.472;2024-03-02T10:46:45;13.04;74.13
72380;SHT30;60354;47.798;12.472;2024-03-02T10:49:11;13.02;74.72
72380;SHT30;60354;47.798;12.472;2024-03-02T10:51:37;13.21;74.74
72380;SHT30;60354;47.798;12.472;2024-03-02T10:54:03;13.13;74.83
72380;SHT30;60354;47.798;12.472;2024-03-02T10:56:33;13.30;73.63
72380;SHT30;60354;47.798;12.472;2024-03-02T11:01:50;13.31;72.79
72380;SHT30;60354;47.798;12.472;2024-03-02T11:04:18;13.24;71.61
72380;SHT30;60354;47.798;12.472;2024-03-02T11:06:48;13.33;71.97
72380;SHT30;60354;47.798;12.472;2024-03-02T11:09:14;13.28;73.06
72380;SHT30;60354;47.798;12.472;2024-03-02T11:11:43;13.30;72.20
72380;SHT30;60354;47.798;12.472;2024-03-02T11:14:13;13.27;72.84
72380;SHT30;60354;47.798;12.472;2024-03-02T11:16:41;13.43;73.18
72380;SHT30;60354;47.798;12.472;2024-03-02T11:19:13;13.51;73.39
72380;SHT30;60354;47.798;12.472;2024-03-02T11:21:40;13.53;73.48
72380;SHT30;60354;47.798;12.472;2024-03-02T11:26:47;13.43;73.72
72380;SHT30;60354;47.798;12.472;2024-03-02T11:32:21;13.64;74.09
72380;SHT30;60354;47.798;12.472;2024-03-02T11:34:48;13.65;71.81
72380;SHT30;60354;47.798;12.472;2024-03-02T11:37:20;13.58;70.41
72380;SHT30;60354;47.798;12.472;2024-03-02T11:39:48;13.53;70.93
72380;SHT30;60354;47.798;12.472;2024-03-02T11:42:15;13.61;70.31
72380;SHT30;60354;47.798;12.472;2024-03-02T11:44:43;13.57;71.24
72380;SHT30;60354;47.798;12.472;2024-03-02T11:47:11;13.61;72.02
72380;SHT30;60354;47.798;12.472;2024-03-02T11:49:41;13.71;71.57
72380;SHT30;60354;47.798;12.472;2024-03-02T11:52:09;13.64;71.56
72380;SHT30;60354;47.798;12.472;2024-03-02T11:54:39;13.58;72.97
72380;SHT30;60354;47.798;12.472;2024-03-02T11:57:06;13.66;71.63
72380;SHT30;60354;47.798;12.472;2024-03-02T11:59:32;13.64;71.16
72380;SHT30;60354;47.798;12.472;2024-03-02T12:01:59;13.83;70.40
72380;SHT30;60354;47.798;12.472;2024-03-02T12:04:25;13.82;71.14
72380;SHT30;60354;47.798;12.472;2024-03-02T12:06:59;13.88;70.32
72380;SHT30;60354;47.798;12.472;2024-03-02T12:09:28;13.86;71.25
72380;SHT30;60354;47.798;12.472;2024-03-02T12:12:07;13.86;72.17
72380;SHT30;60354;47.798;12.472;2024-03-02T12:14:33;14.04;71.95
72380;SHT30;60354;47.798;12.472;2024-03-02T12:16:59;14.08;70.99
72380;SHT30;60354;47.798;12.472;2024-03-02T12:19:28;14.15;66.83
72380;SHT30;60354;47.798;12.472;2024-03-02T12:21:59;14.16;66.25
72380;SHT30;60354;47.798;12.472;2024-03-02T12:24:26;14.22;64.46
72380;SHT30;60354;47.798;12.472;2024-03-02T12:26:55;14.12;62.78
72380;SHT30;60354;47.798;12.472;2024-03-02T12:29:22;14.25;62.05
72380;SHT30;60354;47.798;12.472;2024-03-02T12:31:51;14.19;61.65
72380;SHT30;60354;47.798;12.472;2024-03-02T12:34:18;14.41;62.67
72380;SHT30;60354;47.798;12.472;2024-03-02T12:36:46;14.32;63.05
72380;SHT30;60354;47.798;12.472;2024-03-02T12:39:16;14.19;64.65
72380;SHT30;60354;47.798;12.472;2024-03-02T12:41:42;14.33;64.12
72380;SHT30;60354;47.798;12.472;2024-03-02T12:44:08;14.27;63.26
72380;SHT30;60354;47.798;12.472;2024-03-02T12:46:34;14.30;62.19
72380;SHT30;60354;47.798;12.472;2024-03-02T12:49:15;14.37;63.17
72380;SHT30;60354;47.798;12.472;2024-03-02T12:51:43;14.12;64.30
72380;SHT30;60354;47.798;12.472;2024-03-02T12:54:11;14.17;64.66
72380;SHT30;60354;47.798;12.472;2024-03-02T12:56:37;14.27;65.10
72380;SHT30;60354;47.798;12.472;2024-03-02T12:59:04;14.08;65.53
72380;SHT30;60354;47.798;12.472;2024-03-02T13:01:30;14.20;65.84
72380;SHT30;60354;47.798;12.472;2024-03-02T13:03:57;14.16;65.76
72380;SHT30;60354;47.798;12.472;2024-03-02T13:06:23;14.23;66.50
72380;SHT30;60354;47.798;12.472;2024-03-02T13:08:50;14.08;66.10
72380;SHT30;60354;47.798;12.472;2024-03-02T13:11:15;14.19;67.11
72380;SHT30;60354;47.798;12.472;2024-03-02T13:13:42;14.22;66.47
72380;SHT30;60354;47.798;12.472;2024-03-02T13:16:11;14.32;67.01
72380;SHT30;60354;47.798;12.472;2024-03-02T13:18:39;14.33;66.41
72380;SHT30;60354;47.798;12.472;2024-03-02T13:21:05;14.37;66.87
72380;SHT30;60354;47.798;12.472;2024-03-02T13:23:30;14.34;67.49
72380;SHT30;60354;47.798;12.472;2024-03-02T13:25:57;14.30;68.38
72380;SHT30;60354;47.798;12.472;2024-03-02T13:28:24;14.30;69.44
72380;SHT30;60354;47.798;12.472;2024-03-02T13:30:49;14.38;69.32
72380;SHT30;60354;47.798;12.472;2024-03-02T13:33:15;14.33;69.74
72380;SHT30;60354;47.798;12.472;2024-03-02T13:35:41;14.33;70.97
72380;SHT30;60354;47.798;12.472;2024-03-02T13:38:06;14.26;70.95
72380;SHT30;60354;47.798;12.472;2024-03-02T13:43:02;14.05;71.47
72380;SHT30;60354;47.798;12.472;2024-03-02T13:45:28;13.96;71.23
72380;SHT30;60354;47.798;12.472;2024-03-02T13:47:53;13.90;71.45
72380;SHT30;60354;47.798;12.472;2024-03-02T13:50:19;13.90;71.26
72380;SHT30;60354;47.798;12.472;2024-03-02T13:52:45;13.95;71.79
72380;SHT30;60354;47.798;12.472;2024-03-02T13:55:10;14.01;70.79
72380;SHT30;60354;47.798;12.472;2024-03-02T13:57:36;13.83;70.47
72380;SHT30;60354;47.798;12.472;2024-03-02T14:00:02;13.78;70.21
72380;SHT30;60354;47.798;12.472;2024-03-02T14:02:37;13.75;70.75
72380;SHT30;60354;47.798;12.472;2024-03-02T14:05:03;13.65;70.27
72380;SHT30;60354;47.798;12.472;2024-03-02T14:07:29;13.74;70.68
72380;SHT30;60354;47.798;12.472;2024-03-02T14:09:54;13.69;70.96
72380;SHT30;60354;47.798;12.472;2024-03-02T14:12:19;13.74;71.55
72380;SHT30;60354;47.798;12.472;2024-03-02T14:14:45;13.69;71.87
72380;SHT30;60354;47.798;12.472;2024-03-02T14:17:10;13.58;71.59
72380;SHT30;60354;47.798;12.472;2024-03-02T14:19:40;13.54;71.47
72380;SHT30;60354;47.798;12.472;2024-03-02T14:22:05;13.59;72.36
72380;SHT30;60354;47.798;12.472;2024-03-02T14:24:31;13.65;71.60
72380;SHT30;60354;47.798;12.472;2024-03-02T14:26:56;13.59;72.22
72380;SHT30;60354;47.798;12.472;2024-03-02T14:29:28;13.58;71.86
72380;SHT30;60354;47.798;12.472;2024-03-02T14:31:54;13.53;71.82
72380;SHT30;60354;47.798;12.472;2024-03-02T14:34:19;13.58;72.64
72380;SHT30;60354;47.798;12.472;2024-03-02T14:36:45;13.53;72.19
72380;SHT30;60354;47.798;12.472;2024-03-02T14:39:11;13.44;72.59
72380;SHT30;60354;47.798;12.472;2024-03-02T14:41:37;13.38;73.19
72380;SHT30;60354;47.798;12.472;2024-03-02T14:44:02;13.40;73.47
72380;SHT30;60354;47.798;12.472;2024-03-02T14:46:29;13.37;73.73
72380;SHT30;60354;47.798;12.472;2024-03-02T14:48:54;13.33;73.95
72380;SHT30;60354;47.798;12.472;2024-03-02T14:51:20;13.41;74.03
72380;SHT30;60354;47.798;12.472;2024-03-02T14:53:45;13.48;73.64
72380;SHT30;60354;47.798;12.472;2024-03-02T14:56:11;13.40;74.06
72380;SHT30;60354;47.798;12.472;2024-03-02T14:58:38;13.41;73.06
72380;SHT30;60354;47.798;12.472;2024-03-02T15:01:04;13.34;73.50
72380;SHT30;60354;47.798;12.472;2024-03-02T15:03:31;13.21;74.03
72380;SHT30;60354;47.798;12.472;2024-03-02T15:05:57;13.17;73.63
72380;SHT30;60354;47.798;12.472;2024-03-02T15:08:23;13.20;73.51
72380;SHT30;60354;47.798;12.472;2024-03-02T15:10:48;13.18;73.68
72380;SHT30;60354;47.798;12.472;2024-03-02T15:13:14;13.20;73.46
72380;SHT30;60354;47.798;12.472;2024-03-02T15:15:40;13.18;73.18
72380;SHT30;60354;47.798;12.472;2024-03-02T15:18:06;13.21;72.95
72380;SHT30;60354;47.798;12.472;2024-03-02T15:20:33;13.23;73.16
72380;SHT30;60354;47.798;12.472;2024-03-02T15:22:58;13.20;73.09
72380;SHT30;60354;47.798;12.472;2024-03-02T15:25:24;13.11;73.12
72380;SHT30;60354;47.798;12.472;2024-03-02T15:27:50;13.11;73.37
72380;SHT30;60354;47.798;12.472;2024-03-02T15:30:15;13.11;73.42
72380;SHT30;60354;47.798;12.472;2024-03-02T15:32:41;13.07;73.77
72380;SHT30;60354;47.798;12.472;2024-03-02T15:35:07;13.06;73.72